Terminal Aerodrome Forecast
Issued by NWS

Home | Current Version | Previous Version | Text Only | Print | Product List | Glossary On
Versions: 1 2 3 4 5 6 7 8 9 10 11 12 13
000
FTUS44 KOUN 162320
TAFPNC
TAF
KPNC 162320Z 1700/1724 16010KT P6SM SCT100 BKN250
     FM170800 09008KT P6SM OVC100
     FM171400 06011KT P6SM SCT025 OVC050 PROB30 1714/1717 6SM -RA
      BKN025 OVC050
     FM171700 04010KT 4SM -RA SCT015 OVC025=

USA.gov is the U.S. government's official web portal to all federal, state and local government web resources and services.